createdAt,value
2023-05-14T00:01:28.324Z,16.98
2023-05-14T00:03:58.697Z,17.27
2023-05-14T00:06:32.071Z,20.65
2023-05-14T00:09:02.239Z,15.68
2023-05-14T00:11:32.374Z,20.65
2023-05-14T00:14:02.582Z,30.20
2023-05-14T00:16:32.799Z,16.10
2023-05-14T00:19:03.009Z,12.93
2023-05-14T00:21:35.813Z,13.98
2023-05-14T00:24:06.008Z,18.73
2023-05-14T00:26:36.134Z,18.55
2023-05-14T00:29:06.478Z,19.10
2023-05-14T00:31:36.624Z,16.35
2023-05-14T00:34:07.167Z,24.30
2023-05-14T00:36:39.927Z,19.50
2023-05-14T00:39:10.053Z,14.80
2023-05-14T00:41:40.229Z,14.60
2023-05-14T00:44:10.377Z,13.93
2023-05-14T00:46:40.872Z,19.08
2023-05-14T00:49:11.416Z,15.48
2023-05-14T00:51:47.057Z,13.77
2023-05-14T00:54:18.353Z,21.08
2023-05-14T00:56:51.977Z,13.30
2023-05-14T00:59:22.178Z,12.57
2023-05-14T01:01:55.570Z,15.40
2023-05-14T01:04:28.964Z,16.67
2023-05-14T01:07:12.393Z,16.73
2023-05-14T01:09:54.952Z,15.45
2023-05-14T01:12:46.878Z,15.32
2023-05-14T01:15:24.128Z,12.85
2023-05-14T01:17:58.310Z,18.48
2023-05-14T01:20:29.553Z,13.30
2023-05-14T01:23:04.610Z,15.60
2023-05-14T01:25:37.174Z,12.73
2023-05-14T01:28:15.572Z,20.65
2023-05-14T01:30:53.656Z,12.75
2023-05-14T01:33:28.002Z,12.88
2023-05-14T01:36:00.713Z,15.13
2023-05-14T01:38:39.953Z,14.02
2023-05-14T01:41:10.505Z,9.85
2023-05-14T01:43:41.485Z,16.15
2023-05-14T01:46:11.668Z,14.55
2023-05-14T01:48:41.849Z,18.02
2023-05-14T01:51:15.013Z,11.07
2023-05-14T01:53:48.941Z,14.70
2023-05-14T01:56:19.091Z,10.95
2023-05-14T01:58:49.284Z,12.68
2023-05-14T02:01:20.082Z,13.82
2023-05-14T02:03:51.583Z,12.15
2023-05-14T02:06:21.800Z,14.50
2023-05-14T02:08:54.550Z,19.20
2023-05-14T02:11:24.852Z,11.90
2023-05-14T02:13:55.039Z,12.05
2023-05-14T02:16:25.279Z,10.82
2023-05-14T02:18:56.684Z,13.75
2023-05-14T02:21:27.448Z,16.02
2023-05-14T02:24:00.545Z,11.90
2023-05-14T02:26:30.770Z,15.77
2023-05-14T02:29:01.108Z,15.85
2023-05-14T02:31:31.263Z,16.13
2023-05-14T02:34:01.546Z,14.60
2023-05-14T02:36:32.110Z,12.75
2023-05-14T02:39:04.967Z,11.93
2023-05-14T02:41:35.106Z,19.60
2023-05-14T02:44:05.322Z,16.05
2023-05-14T02:46:35.573Z,14.25
2023-05-14T02:49:05.909Z,12.80
2023-05-14T02:51:36.081Z,20.83
2023-05-14T02:54:09.094Z,19.25
2023-05-14T02:56:39.259Z,15.33
2023-05-14T02:59:09.355Z,11.63
2023-05-14T03:01:40.285Z,19.30
2023-05-14T03:04:10.969Z,18.05
2023-05-14T03:06:41.112Z,15.05
2023-05-14T03:09:14.541Z,18.02
2023-05-14T03:11:44.692Z,23.77
2023-05-14T03:14:14.897Z,12.68
2023-05-14T03:16:45.152Z,11.70
2023-05-14T03:19:15.450Z,15.32
2023-05-14T03:21:46.825Z,16.13
2023-05-14T03:24:19.606Z,11.18
2023-05-14T03:26:49.812Z,15.18
2023-05-14T03:29:20.410Z,15.85
2023-05-14T03:31:50.891Z,17.48
2023-05-14T03:34:21.334Z,20.35
2023-05-14T03:36:51.452Z,15.57
2023-05-14T03:39:24.319Z,13.10
2023-05-14T03:41:54.533Z,15.40
2023-05-14T03:44:24.711Z,16.77
2023-05-14T03:46:54.878Z,11.25
2023-05-14T03:49:25.126Z,19.52
2023-05-14T03:51:55.361Z,14.50
2023-05-14T03:54:28.135Z,16.52
2023-05-14T03:56:58.933Z,13.48
2023-05-14T03:59:29.271Z,13.13
2023-05-14T04:01:59.443Z,13.40
2023-05-14T04:04:29.776Z,12.05
2023-05-14T04:06:59.963Z,20.38
2023-05-14T04:09:34.724Z,20.08
2023-05-14T04:12:04.922Z,22.45
2023-05-14T04:14:36.856Z,22.15
2023-05-14T04:17:07.414Z,16.83
2023-05-14T04:19:37.599Z,17.38
2023-05-14T04:22:08.079Z,19.33
2023-05-14T04:24:41.119Z,19.52
2023-05-14T04:27:11.343Z,13.50
2023-05-14T04:29:41.479Z,14.32
2023-05-14T04:32:12.430Z,21.13
2023-05-14T04:34:42.666Z,13.70
2023-05-14T04:37:12.805Z,12.10
2023-05-14T04:39:45.556Z,14.70
2023-05-14T04:42:15.684Z,17.17
2023-05-14T04:44:45.848Z,18.65
2023-05-14T04:47:15.940Z,20.38
2023-05-14T04:49:46.326Z,22.48
2023-05-14T04:52:16.510Z,13.60
2023-05-14T04:54:49.386Z,15.57
2023-05-14T04:57:19.755Z,26.57
2023-05-14T04:59:49.915Z,13.35
2023-05-14T05:02:20.079Z,20.08
2023-05-14T05:04:50.271Z,21.52
2023-05-14T05:07:20.417Z,14.90
2023-05-14T05:09:53.153Z,16.58
2023-05-14T05:12:23.318Z,19.23
2023-05-14T05:14:53.404Z,19.65
2023-05-14T05:17:23.560Z,21.20
2023-05-14T05:19:53.898Z,16.63
2023-05-14T05:22:24.069Z,18.75
2023-05-14T05:24:56.787Z,19.67
2023-05-14T05:27:27.248Z,19.52
2023-05-14T05:29:57.764Z,18.95
2023-05-14T05:32:28.282Z,24.08
2023-05-14T05:34:58.464Z,13.35
2023-05-14T05:37:28.607Z,20.23
2023-05-14T05:40:01.283Z,19.90
2023-05-14T05:42:31.502Z,16.85
2023-05-14T05:45:01.567Z,17.52
2023-05-14T05:47:31.692Z,19.88
2023-05-14T05:50:01.937Z,20.58
2023-05-14T05:52:32.138Z,17.05
2023-05-14T05:55:04.882Z,18.35
2023-05-14T05:57:35.045Z,19.42
2023-05-14T06:00:12.816Z,15.98
2023-05-14T06:02:43.657Z,18.77
2023-05-14T06:05:14.239Z,18.33
2023-05-14T06:07:44.476Z,18.67
2023-05-14T06:10:17.264Z,18.58
2023-05-14T06:12:47.453Z,22.15
2023-05-14T06:15:18.120Z,22.35
2023-05-14T06:17:48.334Z,20.10
2023-05-14T06:20:18.751Z,22.90
2023-05-14T06:22:48.890Z,23.58
2023-05-14T06:25:21.740Z,22.45
2023-05-14T06:27:51.868Z,22.67
2023-05-14T06:30:22.326Z,21.35
2023-05-14T06:32:52.847Z,23.67
2023-05-14T06:35:23.218Z,22.85
2023-05-14T06:37:53.410Z,20.15
2023-05-14T06:40:26.406Z,18.90
2023-05-14T06:42:56.699Z,22.08
2023-05-14T06:45:27.823Z,23.17
2023-05-14T06:47:58.960Z,20.70
2023-05-14T06:50:32.081Z,21.48
2023-05-14T06:53:02.211Z,27.83
2023-05-14T06:55:35.047Z,24.92
2023-05-14T06:58:05.413Z,19.08
2023-05-14T07:00:35.918Z,18.65
2023-05-14T07:03:06.186Z,27.08
2023-05-14T07:05:36.371Z,18.73
2023-05-14T07:08:06.709Z,22.90
2023-05-14T07:10:39.930Z,24.40
2023-05-14T07:13:12.743Z,18.98
2023-05-14T07:15:43.078Z,21.50
2023-05-14T07:18:13.387Z,22.50
2023-05-14T07:20:43.563Z,21.00
2023-05-14T07:23:13.717Z,23.15
2023-05-14T07:25:46.407Z,17.67
2023-05-14T07:28:16.853Z,20.65
2023-05-14T07:30:47.217Z,17.42
2023-05-14T07:33:17.365Z,17.38
2023-05-14T07:35:47.646Z,19.67
2023-05-14T07:38:18.067Z,18.77
2023-05-14T07:40:50.837Z,19.00
2023-05-14T07:43:21.016Z,16.75
2023-05-14T07:45:51.692Z,24.60
2023-05-14T07:48:21.952Z,21.38
2023-05-14T07:50:55.261Z,19.88
2023-05-14T07:53:26.474Z,15.25
2023-05-14T07:56:00.251Z,15.43
2023-05-14T07:58:32.932Z,19.67
2023-05-14T08:01:07.395Z,15.75
2023-05-14T08:03:37.893Z,15.57
2023-05-14T08:06:08.648Z,19.63
2023-05-14T08:08:38.820Z,24.23
2023-05-14T08:11:12.041Z,17.70
2023-05-14T08:13:42.249Z,20.10
2023-05-14T08:16:12.381Z,19.55
2023-05-14T08:18:42.614Z,17.23
2023-05-14T08:21:12.825Z,17.55
2023-05-14T08:23:42.955Z,23.63
2023-05-14T08:26:15.696Z,30.02
2023-05-14T08:28:45.867Z,18.77
2023-05-14T08:31:18.599Z,19.92
2023-05-14T08:33:48.804Z,14.90
2023-05-14T08:36:18.949Z,20.70
2023-05-14T08:38:50.625Z,18.85
2023-05-14T08:41:24.365Z,16.05
2023-05-14T08:44:09.480Z,23.58
2023-05-14T08:46:41.212Z,22.45
2023-05-14T08:49:23.349Z,23.20
2023-05-14T08:51:53.687Z,14.18
2023-05-14T08:54:25.588Z,18.95
2023-05-14T08:56:59.461Z,16.65
2023-05-14T08:59:29.867Z,22.67
2023-05-14T09:02:01.905Z,17.52
2023-05-14T09:04:32.921Z,20.00
2023-05-14T09:07:07.669Z,20.27
2023-05-14T09:09:38.319Z,29.15
2023-05-14T09:12:12.259Z,20.73
2023-05-14T09:14:43.179Z,19.45
2023-05-14T09:17:13.736Z,19.50
2023-05-14T09:19:44.017Z,17.30
2023-05-14T09:22:16.636Z,19.08
2023-05-14T09:24:47.155Z,17.60
2023-05-14T09:27:26.197Z,14.90
2023-05-14T09:29:56.536Z,23.20
2023-05-14T09:32:26.769Z,23.23
2023-05-14T09:34:59.497Z,20.85
2023-05-14T09:37:32.806Z,17.90
2023-05-14T09:40:09.728Z,18.77
2023-05-14T09:42:42.927Z,18.95
2023-05-14T09:45:17.098Z,20.63
2023-05-14T09:47:47.849Z,27.27
2023-05-14T09:50:18.113Z,18.25
2023-05-14T09:52:48.534Z,18.73
2023-05-14T09:55:19.258Z,21.85
2023-05-14T09:57:52.075Z,19.23
2023-05-14T10:00:23.356Z,20.83
2023-05-14T10:02:54.377Z,18.80
2023-05-14T10:05:27.303Z,24.50
2023-05-14T10:08:02.340Z,18.58
2023-05-14T10:10:33.094Z,18.73
2023-05-14T10:13:08.046Z,24.85
2023-05-14T10:15:43.792Z,19.88
2023-05-14T10:18:16.134Z,20.77
2023-05-14T10:20:47.248Z,20.00
2023-05-14T10:23:17.614Z,22.45
2023-05-14T10:25:48.466Z,21.15
2023-05-14T10:28:21.612Z,23.70
2023-05-14T10:30:53.045Z,20.33
2023-05-14T10:33:23.184Z,22.45
2023-05-14T10:36:00.654Z,21.33
2023-05-14T10:38:32.039Z,20.27
2023-05-14T10:41:06.779Z,20.92
2023-05-14T10:43:42.556Z,24.00
2023-05-14T10:46:14.323Z,20.45
2023-05-14T10:48:47.302Z,20.73
2023-05-14T10:51:21.143Z,26.90
2023-05-14T10:53:51.855Z,21.85
2023-05-14T10:56:22.530Z,23.90
2023-05-14T10:58:55.216Z,32.30
2023-05-14T11:01:27.433Z,35.95
2023-05-14T11:04:01.395Z,26.70
2023-05-14T11:06:32.636Z,22.98
2023-05-14T11:09:04.510Z,22.30
2023-05-14T11:11:35.534Z,23.60
2023-05-14T11:14:10.179Z,25.67
2023-05-14T11:16:41.694Z,27.70
2023-05-14T11:19:13.778Z,31.17
2023-05-14T11:21:44.524Z,22.23
2023-05-14T11:24:14.766Z,21.25
2023-05-14T11:26:45.014Z,23.27
2023-05-14T11:29:17.911Z,28.85
2023-05-14T11:31:48.121Z,23.00
2023-05-14T11:34:18.341Z,26.92
2023-05-14T11:36:49.228Z,27.65
2023-05-14T11:39:21.896Z,23.88
2023-05-14T11:41:52.077Z,33.60
2023-05-14T11:44:25.653Z,27.48
2023-05-14T11:49:30.436Z,23.45
2023-05-14T11:52:00.890Z,29.70
2023-05-14T11:54:31.450Z,26.42
2023-05-14T11:57:03.170Z,31.08
2023-05-14T11:59:36.065Z,26.60
2023-05-14T12:02:07.094Z,29.08
2023-05-14T12:04:37.561Z,28.70
2023-05-14T12:07:12.368Z,23.23
2023-05-14T12:09:49.331Z,26.10
2023-05-14T12:12:22.138Z,23.25
2023-05-14T12:14:55.263Z,21.43
2023-05-14T12:17:26.044Z,21.80
2023-05-14T12:19:57.301Z,17.52
2023-05-14T12:22:27.627Z,18.65
2023-05-14T12:24:58.566Z,22.17
2023-05-14T12:27:29.874Z,23.50
2023-05-14T12:30:20.679Z,14.80
2023-05-14T12:32:53.232Z,14.90
2023-05-14T12:35:24.433Z,16.23
2023-05-14T12:37:54.722Z,16.95
2023-05-14T12:40:25.509Z,12.55
2023-05-14T12:42:56.810Z,13.32
2023-05-14T12:45:30.110Z,13.40
2023-05-14T12:48:00.347Z,16.13
2023-05-14T12:50:30.529Z,20.63
2023-05-14T12:53:00.800Z,20.48
2023-05-14T12:55:33.489Z,17.67
2023-05-14T12:58:03.822Z,14.38
2023-05-14T13:00:36.977Z,15.68
2023-05-14T13:03:07.411Z,19.70
2023-05-14T13:05:37.631Z,9.55
2023-05-14T13:08:07.854Z,11.68
2023-05-14T13:10:38.042Z,14.38
2023-05-14T13:13:08.170Z,12.15
2023-05-14T13:15:41.920Z,11.20
2023-05-14T13:20:44.805Z,11.07
2023-05-14T13:23:15.042Z,9.20
2023-05-14T13:25:46.128Z,16.08
2023-05-14T13:28:17.484Z,11.90
2023-05-14T13:31:12.396Z,13.13
2023-05-14T13:33:45.007Z,17.33
2023-05-14T13:36:17.409Z,13.00
2023-05-14T13:38:48.868Z,16.65
2023-05-14T13:41:19.001Z,16.95
2023-05-14T13:43:49.155Z,14.38
2023-05-14T13:46:21.931Z,14.25
2023-05-14T13:48:52.785Z,13.83
2023-05-14T13:51:22.952Z,13.50
2023-05-14T13:56:23.506Z,14.57
2023-05-14T13:58:53.644Z,15.15
2023-05-14T14:01:26.459Z,10.77
2023-05-14T14:03:56.802Z,10.33
2023-05-14T14:06:27.478Z,15.02
2023-05-14T14:08:57.665Z,17.50
2023-05-14T14:11:27.884Z,15.68
2023-05-14T14:13:57.991Z,14.25
2023-05-14T14:16:30.808Z,15.27
2023-05-14T14:19:01.007Z,12.67
2023-05-14T14:21:32.935Z,17.38
2023-05-14T14:24:03.145Z,12.32
2023-05-14T14:26:33.503Z,15.10
2023-05-14T14:29:03.659Z,15.25
2023-05-14T14:31:37.731Z,14.63
2023-05-14T14:34:07.941Z,13.23
2023-05-14T14:36:38.123Z,14.35
2023-05-14T14:39:10.787Z,11.98
2023-05-14T14:41:44.640Z,18.58
2023-05-14T14:44:14.747Z,14.38
2023-05-14T14:46:47.428Z,14.18
2023-05-14T14:49:18.948Z,15.40
2023-05-14T14:51:49.316Z,19.77
2023-05-14T14:54:19.438Z,14.68
2023-05-14T14:56:52.564Z,15.57
2023-05-14T14:59:22.946Z,13.18
2023-05-14T15:01:55.799Z,19.52
2023-05-14T15:04:25.930Z,11.83
2023-05-14T15:06:56.009Z,13.52
2023-05-14T15:09:26.182Z,15.95
2023-05-14T15:11:56.651Z,14.02
2023-05-14T15:14:26.832Z,20.08
2023-05-14T15:17:00.062Z,12.85
2023-05-14T15:19:30.322Z,12.10
2023-05-14T15:22:00.535Z,13.15
2023-05-14T15:24:30.596Z,14.45
2023-05-14T15:27:00.739Z,11.52
2023-05-14T15:29:30.906Z,18.55
2023-05-14T15:32:07.132Z,14.00
2023-05-14T15:34:37.346Z,18.40
2023-05-14T15:37:07.583Z,18.20
2023-05-14T15:39:37.733Z,12.82
2023-05-14T15:42:08.266Z,13.70
2023-05-14T15:44:39.112Z,16.40
2023-05-14T15:47:12.096Z,12.40
2023-05-14T15:49:42.347Z,12.70
2023-05-14T15:52:12.540Z,9.88
2023-05-14T15:54:45.708Z,15.57
2023-05-14T15:57:17.832Z,12.15
2023-05-14T15:59:50.036Z,12.85
2023-05-14T16:02:22.848Z,15.63
2023-05-14T16:04:52.940Z,12.73
2023-05-14T16:07:23.153Z,13.27
2023-05-14T16:09:53.372Z,11.50
2023-05-14T16:12:23.559Z,22.60
2023-05-14T16:14:54.197Z,16.63
2023-05-14T16:17:27.064Z,16.85
2023-05-14T16:19:57.964Z,16.47
2023-05-14T16:22:29.302Z,14.48
2023-05-14T16:25:01.812Z,17.05
2023-05-14T16:27:33.440Z,16.42
2023-05-14T16:30:04.622Z,15.52
2023-05-14T16:32:37.397Z,16.55
2023-05-14T16:35:08.214Z,25.33
2023-05-14T16:37:38.517Z,16.52
2023-05-14T16:40:11.890Z,28.63
2023-05-14T16:42:42.273Z,19.80
2023-05-14T16:45:14.104Z,22.77
2023-05-14T16:47:46.977Z,22.15
2023-05-14T16:50:17.192Z,20.75
2023-05-14T16:52:50.328Z,17.17
2023-05-14T16:55:20.538Z,18.05
2023-05-14T16:57:50.897Z,17.23
2023-05-14T17:00:21.296Z,15.35
2023-05-14T17:02:54.501Z,16.85
2023-05-14T17:05:25.031Z,20.92
2023-05-14T17:07:55.626Z,15.48
2023-05-14T17:10:26.140Z,16.73
2023-05-14T17:12:56.516Z,16.25
2023-05-14T17:15:28.403Z,20.13
2023-05-14T17:18:01.784Z,21.90
2023-05-14T17:20:32.052Z,16.02
2023-05-14T17:23:02.215Z,19.85
2023-05-14T17:25:33.774Z,25.80
2023-05-14T17:28:03.931Z,17.95
2023-05-14T17:30:34.466Z,29.02
2023-05-14T17:33:07.426Z,19.23
2023-05-14T17:35:37.829Z,18.70
2023-05-14T17:38:10.194Z,17.42
2023-05-14T17:40:41.087Z,16.05
2023-05-14T17:43:11.480Z,21.08
2023-05-14T17:45:53.158Z,23.63
2023-05-14T17:48:27.061Z,21.02
2023-05-14T17:50:57.834Z,18.42
2023-05-14T17:53:28.491Z,20.30
2023-05-14T17:55:58.724Z,18.88
2023-05-14T17:58:28.936Z,24.48
2023-05-14T18:00:59.486Z,17.90
2023-05-14T18:03:32.406Z,18.73
2023-05-14T18:06:02.806Z,16.83
2023-05-14T18:08:32.992Z,20.80
2023-05-14T18:11:03.129Z,21.83
2023-05-14T18:13:33.313Z,22.40
2023-05-14T18:16:04.092Z,21.35
2023-05-14T18:18:37.043Z,27.48
2023-05-14T18:21:07.512Z,23.58
2023-05-14T18:23:37.765Z,24.38
2023-05-14T18:26:07.963Z,19.33
2023-05-14T18:28:39.514Z,15.43
2023-05-14T18:31:09.994Z,17.05
2023-05-14T18:33:42.771Z,21.40
2023-05-14T18:36:12.912Z,17.75
2023-05-14T18:38:43.771Z,22.88
2023-05-14T18:41:18.451Z,19.70
2023-05-14T18:43:48.537Z,25.35
2023-05-14T18:46:18.896Z,19.98
2023-05-14T18:48:51.704Z,24.40
2023-05-14T18:51:21.978Z,25.30
2023-05-14T18:53:52.203Z,21.80
2023-05-14T18:56:22.476Z,22.90
2023-05-14T18:58:52.660Z,20.55
2023-05-14T19:01:25.723Z,33.60
2023-05-14T19:03:58.796Z,19.25
2023-05-14T19:06:29.007Z,21.33
2023-05-14T19:08:59.329Z,24.77
2023-05-14T19:11:29.817Z,17.52
2023-05-14T19:14:00.162Z,17.98
2023-05-14T19:16:30.508Z,22.33
2023-05-14T19:19:06.225Z,20.92
2023-05-14T19:21:36.550Z,26.70
2023-05-14T19:24:07.529Z,21.95
2023-05-14T19:26:37.754Z,27.90
2023-05-14T19:29:07.929Z,20.30
2023-05-14T19:31:38.008Z,19.70
2023-05-14T19:34:11.072Z,18.63
2023-05-14T19:36:41.897Z,19.50
2023-05-14T19:39:12.043Z,17.40
2023-05-14T19:41:42.195Z,25.65
2023-05-14T19:44:12.443Z,26.52
2023-05-14T19:46:44.887Z,25.73
2023-05-14T19:49:17.686Z,25.83
2023-05-14T19:51:47.886Z,23.07
2023-05-14T19:54:18.062Z,25.50
2023-05-14T19:56:48.227Z,27.13
2023-05-14T19:59:18.328Z,26.98
2023-05-14T20:01:49.483Z,21.90
2023-05-14T20:04:22.203Z,34.20
2023-05-14T20:06:52.922Z,37.17
2023-05-14T20:09:23.132Z,22.50
2023-05-14T20:11:53.354Z,18.70
2023-05-14T20:14:23.505Z,29.08
2023-05-14T20:16:53.680Z,26.73
2023-05-14T20:19:26.664Z,23.27
2023-05-14T20:21:56.944Z,22.83
2023-05-14T20:24:27.117Z,18.25
2023-05-14T20:26:57.352Z,18.48
2023-05-14T20:29:27.501Z,22.85
2023-05-14T20:31:57.642Z,27.80
2023-05-14T20:34:30.385Z,18.50
2023-05-14T20:37:00.559Z,20.60
2023-05-14T20:39:30.686Z,16.63
2023-05-14T20:42:00.778Z,17.73
2023-05-14T20:44:30.918Z,17.63
2023-05-14T20:47:01.368Z,19.15
2023-05-14T20:49:34.057Z,17.08
2023-05-14T20:52:04.279Z,15.82
2023-05-14T20:54:34.921Z,21.73
2023-05-14T20:57:05.120Z,16.50
2023-05-14T20:59:35.329Z,16.85
2023-05-14T21:02:06.381Z,18.23
2023-05-14T21:04:39.264Z,16.67
2023-05-14T21:07:09.870Z,23.33
2023-05-14T21:09:40.490Z,18.00
2023-05-14T21:12:11.527Z,23.13
2023-05-14T21:14:42.265Z,28.83
2023-05-14T21:17:12.658Z,20.98
2023-05-14T21:19:45.424Z,20.42
2023-05-14T21:22:16.366Z,22.50
2023-05-14T21:24:46.457Z,18.77
2023-05-14T21:27:16.645Z,20.73
2023-05-14T21:29:47.165Z,23.45
2023-05-14T21:32:17.362Z,21.67
2023-05-14T21:34:50.157Z,18.67
2023-05-14T21:37:20.290Z,20.93
2023-05-14T21:39:50.414Z,21.58
2023-05-14T21:42:21.266Z,21.35
2023-05-14T21:44:51.599Z,19.27
2023-05-14T21:47:22.093Z,18.05
2023-05-14T21:49:54.848Z,20.45
2023-05-14T21:52:24.931Z,20.50
2023-05-14T21:54:55.061Z,19.20
2023-05-14T21:57:28.375Z,19.55
2023-05-14T21:59:59.035Z,25.80
2023-05-14T22:02:29.264Z,21.52
2023-05-14T22:05:02.041Z,24.45
2023-05-14T22:07:32.179Z,27.00
2023-05-14T22:10:02.483Z,22.88
2023-05-14T22:12:32.603Z,18.73
2023-05-14T22:15:02.809Z,22.77
2023-05-14T22:17:34.528Z,23.38
2023-05-14T22:20:10.300Z,19.15
2023-05-14T22:22:40.638Z,21.63
2023-05-14T22:25:11.485Z,23.90
2023-05-14T22:27:41.533Z,21.13
2023-05-14T22:30:12.601Z,26.35
2023-05-14T22:32:42.739Z,23.48
2023-05-14T22:35:15.571Z,20.88
2023-05-14T22:37:45.796Z,19.63
2023-05-14T22:40:16.669Z,22.60
2023-05-14T22:42:46.924Z,26.75
2023-05-14T22:45:17.495Z,31.15
2023-05-14T22:47:47.708Z,19.63
2023-05-14T22:50:20.603Z,25.45
2023-05-14T22:52:50.794Z,32.22
2023-05-14T22:55:21.358Z,31.88
2023-05-14T22:57:51.557Z,32.50
2023-05-14T23:00:21.964Z,35.50
2023-05-14T23:02:52.096Z,28.58
2023-05-14T23:05:25.130Z,26.30
2023-05-14T23:07:56.251Z,33.47
2023-05-14T23:10:26.345Z,28.27
2023-05-14T23:12:56.469Z,29.10
2023-05-14T23:15:26.840Z,27.23
2023-05-14T23:17:57.364Z,23.85
2023-05-14T23:20:30.194Z,23.90
2023-05-14T23:23:00.329Z,26.43
2023-05-14T23:25:30.435Z,26.85
2023-05-14T23:28:00.623Z,24.35
2023-05-14T23:30:31.405Z,28.17
2023-05-14T23:33:01.709Z,30.08
2023-05-14T23:35:34.653Z,38.72
2023-05-14T23:38:05.008Z,28.73
2023-05-14T23:40:35.565Z,24.83
2023-05-14T23:43:05.685Z,28.17
2023-05-14T23:45:36.572Z,24.65
2023-05-14T23:48:07.833Z,34.55
2023-05-14T23:50:40.700Z,25.58
2023-05-14T23:53:10.919Z,26.20
2023-05-14T23:55:41.352Z,22.77
2023-05-14T23:58:11.709Z,24.88
